Nearby METAR Reports

 

KISP - Islip, New York, USA
Distance from station: SW 4mi, 6km
Updated: Wed, 11/25/2020 5:08 pm EST
Overcast
Overcast
 Wind from SW
Wind: SW 8 mph , 13 km/h
Temperature: 52°F , 11°C
Dew Point: 46°F , 8°C
Humidity: 82%
Barometer: 30.25 inHg , 1024.4 hPa
Clouds: Overcast
Visibility: 10 miles , 16 km
Cloud details: Mostly cloudy 2300 ft
Mostly cloudy 13000 ft
Overcast 25000 ft
2020/11/25 22:08 KISP 252208Z 22007KT 10SM BKN023 BKN130 OVC250 11/08 A3025 RMK AO2 T01110083
KHWV - Shirley, New York, USA
Distance from station: E 10mi, 16km
Updated: Wed, 11/25/2020 4:56 pm EST
Clear
Clear
 Wind from SW
Wind: SW 3 mph , 6 km/h
Temperature: 54°F , 12°C
Dew Point: 45°F , 7°C
Humidity: 72%
Barometer: 30.26 inHg , 1024.7 hPa
Clouds: Clear
Visibility: 10 miles , 16 km
2020/11/25 21:56 KHWV 252156Z AUTO 22003KT 10SM CLR 12/07 A3026 RMK AO2 SLP246 T01170072 TSNO
 
KFRG - Farmingdale, New York, USA
Distance from station: WSW 20mi, 33km
Updated: Wed, 11/25/2020 4:53 pm EST
Clear
Clear
 Wind from SW
Wind: SW 5 mph , 7 km/h
Temperature: 52°F , 11°C
Dew Point: 45°F , 7°C
Humidity: 77%
Barometer: 30.25 inHg , 1024.4 hPa
Clouds: Clear
Visibility: 10 miles , 16 km
2020/11/25 21:53 KFRG 252153Z AUTO 23004KT 10SM CLR 11/07 A3025 RMK AO2 SLP245 T01110067
KBDR - Bridgeport, Connecticut, USA
Distance from station: N 23mi, 37km
Updated: Wed, 11/25/2020 4:52 pm EST
Clear
Clear
 Wind from SW
Wind: SW 7 mph , 11 km/h
Temperature: 54°F , 12°C
Dew Point: 43°F , 6°C
Humidity: 67%
Barometer: 30.25 inHg , 1024.4 hPa
Clouds: Clear
Visibility: 10 miles , 16 km
2020/11/25 21:52 KBDR 252152Z 23006KT 10SM CLR 12/06 A3025 RMK AO2 SLP243 T01170061
 
KFOK - Westhampton Beac, New York, USA
Distance from station: E 23mi, 37km
Updated: Wed, 11/25/2020 4:53 pm EST
Few Clouds
Few Clouds
 Wind from WSW
Wind: WSW 3 mph , 6 km/h
Temperature: 52°F , 11°C
Dew Point: 46°F , 8°C
Humidity: 82%
Barometer: 30.27 inHg , 1025.1 hPa
Clouds: Few Clouds
Visibility: 10 miles , 16 km
Cloud details: Few Clouds 2800 ft
2020/11/25 21:53 KFOK 252153Z 25003KT 10SM FEW028 11/08 A3027 RMK AO2 SLP250 T01060078
KHVN - New Haven/Tweed, Connecticut, USA
Distance from station: NNE 31mi, 50km
Updated: Wed, 11/25/2020 4:53 pm EST
Clear
Clear
 Wind from calm
Wind: Calm
Temperature: 54°F , 12°C
Dew Point: 46°F , 8°C
Humidity: 77%
Barometer: 30.25 inHg , 1024.4 hPa
Clouds: Clear
Visibility: 10 miles , 16 km
2020/11/25 21:53 KHVN 252153Z 00000KT 10SM CLR 12/08 A3025 RMK AO2 SLP243 T01170078
 
KHPN - White Plains, New York, USA
Distance from station: WNW 37mi, 60km
Updated: Wed, 11/25/2020 4:56 pm EST
Few Clouds
Few Clouds
 Wind from SW
Wind: SW 3 mph , 6 km/h
Temperature: 50°F , 10°C
Dew Point: 37°F , 3°C
Humidity: 62%
Barometer: 30.24 inHg , 1024 hPa
Clouds: Few Clouds
Visibility: 10 miles , 16 km
Cloud details: Few Clouds 7500 ft
2020/11/25 21:56 KHPN 252156Z 22003KT 10SM FEW075 10/03 A3024 RMK AO2 SLP243 T01000028
KJFK - Nyc/Jfk Arpt, New York, USA
Distance from station: WSW 40mi, 64km
Updated: Wed, 11/25/2020 4:51 pm EST
Mostly cloudy
Mostly cloudy
 Wind from calm
Wind: Calm
Temperature: 52°F , 11°C
Dew Point: 43°F , 6°C
Humidity: 72%
Barometer: 30.26 inHg , 1024.7 hPa
Clouds: Mostly cloudy
Visibility: 10 miles , 16 km
Cloud details: Few Clouds 3000 ft
Few Clouds 12000 ft
Partly cloudy 15000 ft
Mostly cloudy 25000 ft
2020/11/25 21:51 KJFK 252151Z 00000KT 10SM FEW030 FEW120 SCT150 BKN250 11/06 A3026 RMK AO2 SLP246 T01060061 $
 
KDXR - Danbury, Connecticut, USA
Distance from station: NNW 42mi, 68km
Updated: Wed, 11/25/2020 4:53 pm EST
Clear
Clear
 Wind from SW
Wind: SW 3 mph , 6 km/h
Temperature: 48°F , 9°C
Dew Point: 37°F , 3°C
Humidity: 66%
Barometer: 30.25 inHg , 1024.4 hPa
Clouds: Clear
Visibility: 10 miles , 16 km
2020/11/25 21:53 KDXR 252153Z 22003KT 10SM CLR 09/03 A3025 RMK AO2 SLP244 T00940028
KHTO - East Hampton, New York, USA
Distance from station: E 43mi, 69km
Updated: Wed, 11/25/2020 5:15 pm EST
Partly cloudy
Partly cloudy
 Wind from SW
Wind: SW 7 mph , 11 km/h
Temperature: 54°F , 12°C
Dew Point: 50°F , 10°C
Humidity: 88%
Barometer: 30.25 inHg , 1024.4 hPa
Clouds: Partly cloudy
Visibility: 10 miles , 16 km
Cloud details: Partly cloudy 2700 ft
Partly cloudy 3200 ft
Partly cloudy 12000 ft
2020/11/25 22:15 KHTO 252215Z AUTO 23006KT 10SM SCT027 SCT032 SCT120 12/10 A3025 RMK AO2 T01230095
 
KOXC - Oxford/Waterbury, Connecticut, USA
Distance from station: N 43mi, 70km
Updated: Wed, 11/25/2020 4:51 pm EST
Mostly cloudy
Mostly cloudy
 Wind from calm
Wind: Calm
Temperature: 48°F , 9°C
Dew Point: 39°F , 4°C
Humidity: 71%
Barometer: 30.25 inHg , 1024.4 hPa
Clouds: Mostly cloudy
Visibility: 10 miles , 16 km
Cloud details: Few Clouds 7000 ft
Mostly cloudy 12000 ft
2020/11/25 21:51 KOXC 252151Z 00000KT 10SM FEW070 BKN120 09/04 A3025 RMK AO2 RAB2056E27 SLP261 P0000 T00890044
KLGA - Nyc/La Guardia, New York, USA
Distance from station: W 44mi, 70km
Updated: Wed, 11/25/2020 4:51 pm EST
Mostly cloudy
Mostly cloudy
 Wind from SW
Wind: SW 5 mph , 7 km/h
Temperature: 54°F , 12°C
Dew Point: 39°F , 4°C
Humidity: 58%
Barometer: 30.25 inHg , 1024.4 hPa
Clouds: Mostly cloudy
Visibility: 10 miles , 16 km
Cloud details: Few Clouds 3500 ft
Partly cloudy 16000 ft
Mostly cloudy 25000 ft
2020/11/25 21:51 KLGA 252151Z 22004KT 10SM FEW035 SCT160 BKN250 12/04 A3025 RMK AO2 SLP241 T01220039
 
KSNC - Chester, Connecticut, USA
Distance from station: NE 47mi, 76km
Updated: Wed, 11/25/2020 5:35 pm EST
Partly cloudy
Partly cloudy
 Wind from varies
Wind: varies 3 mph , 6 km/h
Temperature: 52°F , 11°C
Dew Point: 46°F , 8°C
Humidity: 82%
Barometer: 30.25 inHg , 1024.4 hPa
Clouds: Partly cloudy
Visibility: 10 miles , 16 km
Cloud details: Partly cloudy 7000 ft
2020/11/25 22:35 KSNC 252235Z AUTO VRB03KT 10SM SCT070 11/08 A3025 RMK AO2
KMMK - Meriden, Connecticut, USA
Distance from station: NNE 48mi, 77km
Updated: Wed, 11/25/2020 4:53 pm EST
Partly cloudy
Partly cloudy
 Wind from S
Wind: S 3 mph , 6 km/h
Temperature: 52°F , 11°C
Dew Point: 39°F , 4°C
Humidity: 62%
Barometer: 30.25 inHg , 1024.4 hPa
Clouds: Partly cloudy
Visibility: 10 miles , 16 km
Cloud details: Few Clouds 8000 ft
Few Clouds 10000 ft
Partly cloudy 12000 ft
2020/11/25 21:53 KMMK 252153Z AUTO 18003KT 10SM FEW080 FEW100 SCT120 11/04 A3025 RMK AO2 RAB17E41 SLP244 P0000 T01060044
 
KNYC - Nyc/Central Park, New York, USA
Distance from station: W 48mi, 77km
Updated: Wed, 11/25/2020 4:51 pm EST
Clear
Clear
 Wind from varies
Wind: varies 5 mph , 7 km/h
Temperature: 52°F , 11°C
Dew Point: 39°F , 4°C
Humidity: 62%
Barometer: 30.27 inHg , 1025.1 hPa
Clouds: Clear
Visibility: 10 miles , 16 km
2020/11/25 21:51 KNYC 252151Z AUTO VRB04KT 10SM CLR 11/04 A3027 RMK AO2 SLP241 T01110039 $